Time;durP1;ratioP1;P1;durP2;ratioP2;P2;SDS_P1;SDS_P2;PMS_P1;PMS_P2;Temp;Humidity;BMP_temperature;BMP_pressure;BME280_temperature;BME280_humidity;BME280_pressure;Samples;Min_cycle;Max_cycle;Signal;HPM_P1;HPM_P2
2022/08/17 00:01:07;;;;;;;40.30;36.27;;;20.90;99.90;;;;;;5034985;28;20044;-68
2022/08/17 00:03:37;;;;;;;42.63;38.33;;;20.80;99.90;;;;;;5035035;28;20053;-68
2022/08/17 00:06:12;;;;;;;42.63;38.20;;;20.70;99.90;;;;;;5035021;28;20132;-68
2022/08/17 00:08:42;;;;;;;39.77;36.07;;;20.70;99.90;;;;;;5034960;28;20094;-68
2022/08/17 00:11:24;;;;;;;41.07;37.17;;;20.70;99.90;;;;;;5017446;28;20041;-68
2022/08/17 00:13:53;;;;;;;38.70;35.10;;;20.70;99.90;;;;;;5034873;28;20045;-68
2022/08/17 00:16:25;;;;;;;41.20;36.90;;;20.70;99.90;;;;;;5034112;28;20594;-68
2022/08/17 00:18:51;;;;;;;39.90;36.10;;;20.70;99.90;;;;;;5034698;28;20254;-68
2022/08/17 00:21:21;;;;;;;40.27;36.27;;;20.70;99.90;;;;;;5034942;28;20041;-68
2022/08/17 00:23:48;;;;;;;43.13;38.80;;;20.60;99.90;;;;;;5034675;28;20057;-68
2022/08/17 00:26:14;;;;;;;39.23;35.27;;;20.50;99.90;;;;;;5034643;28;20057;-68
2022/08/17 00:28:40;;;;;;;40.97;37.17;;;20.50;99.90;;;;;;5034598;28;20049;-68
2022/08/17 00:31:08;;;;;;;39.40;35.63;;;20.50;99.90;;;;;;5016870;28;20050;-68
2022/08/17 00:33:36;;;;;;;39.73;36.03;;;20.50;99.90;;;;;;5034446;28;20048;-68
2022/08/17 00:36:04;;;;;;;40.30;36.47;;;20.40;99.90;;;;;;5034389;28;20049;-68
2022/08/17 00:38:31;;;;;;;41.07;36.97;;;20.50;99.90;;;;;;5034373;28;20049;-68
2022/08/17 00:41:07;;;;;;;40.87;36.87;;;20.50;99.90;;;;;;5034981;28;20096;-68
2022/08/17 00:43:33;;;;;;;42.73;38.63;;;20.50;99.90;;;;;;5034558;28;20057;-68
2022/08/17 00:46:21;;;;;;;42.17;37.97;;;20.50;99.90;;;;;;5034038;28;20400;-68
2022/08/17 00:48:48;;;;;;;45.97;41.17;;;20.50;99.90;;;;;;5034934;28;20107;-68
2022/08/17 00:51:30;;;;;;;43.80;39.60;;;20.40;99.90;;;;;;5034104;28;20500;-67
2022/08/17 00:54:36;;;;;;;45.83;41.37;;;20.40;99.90;;;;;;5034654;28;20052;-68
2022/08/17 00:57:17;;;;;;;48.33;43.53;;;20.40;99.90;;;;;;5031093;28;20049;-67
2022/08/17 00:59:48;;;;;;;42.70;38.60;;;20.30;99.90;;;;;;5034501;28;20045;-68
2022/08/17 01:02:16;;;;;;;44.20;39.83;;;20.40;99.90;;;;;;5033975;28;20168;-67
2022/08/17 01:04:44;;;;;;;43.07;38.77;;;20.40;99.90;;;;;;5033990;28;20056;-67
2022/08/17 01:07:11;;;;;;;43.07;39.03;;;20.30;99.90;;;;;;5017164;28;20057;-67
2022/08/17 01:09:38;;;;;;;46.67;42.10;;;20.30;99.90;;;;;;5016373;28;20481;-68
2022/08/17 01:12:07;;;;;;;47.97;43.30;;;20.40;99.90;;;;;;5033735;28;20516;-67
2022/08/17 01:14:33;;;;;;;46.30;41.70;;;20.30;99.90;;;;;;5016368;28;20064;-67
2022/08/17 01:16:59;;;;;;;47.40;42.73;;;20.30;99.90;;;;;;5033734;28;20053;-67
2022/08/17 01:19:29;;;;;;;46.47;42.03;;;20.20;99.90;;;;;;5033651;28;20092;-67
2022/08/17 01:22:05;;;;;;;45.20;40.83;;;20.20;99.90;;;;;;5033538;28;20052;-68
2022/08/17 01:24:32;;;;;;;44.67;40.37;;;20.20;99.90;;;;;;5033617;28;20060;-67
2022/08/17 01:26:58;;;;;;;45.87;40.77;;;20.20;99.90;;;;;;5032733;28;20482;-68
2022/08/17 01:29:25;;;;;;;47.77;42.83;;;20.20;99.90;;;;;;5033823;28;20055;-67
2022/08/17 01:31:56;;;;;;;46.13;41.40;;;20.20;99.90;;;;;;5033503;28;20048;-68
2022/08/17 01:34:23;;;;;;;46.37;41.93;;;20.20;99.90;;;;;;5034014;28;20382;-67
2022/08/17 01:36:50;;;;;;;50.23;45.30;;;20.10;99.90;;;;;;5033490;28;20130;-67
2022/08/17 01:39:31;;;;;;;45.03;40.63;;;20.10;99.90;;;;;;5033387;28;20052;-68
2022/08/17 01:42:10;;;;;;;47.70;43.10;;;20.10;99.90;;;;;;5034130;28;20156;-68
2022/08/17 01:44:37;;;;;;;47.20;42.47;;;20.10;99.90;;;;;;5033386;28;20076;-68
2022/08/17 01:47:02;;;;;;;46.80;41.80;;;20.00;99.90;;;;;;5033876;28;20062;-68
2022/08/17 01:49:28;;;;;;;46.77;42.10;;;20.00;99.90;;;;;;5033314;28;20051;-68
2022/08/17 01:51:54;;;;;;;49.20;44.57;;;20.10;99.90;;;;;;5033619;28;20048;-68
2022/08/17 01:54:21;;;;;;;48.37;43.47;;;20.00;99.90;;;;;;5033311;28;20037;-68
2022/08/17 01:56:49;;;;;;;47.27;42.67;;;20.00;99.90;;;;;;5015622;28;20045;-68
2022/08/17 01:59:18;;;;;;;46.33;41.87;;;19.90;99.90;;;;;;5033225;28;20050;-68
2022/08/17 02:01:44;;;;;;;46.80;42.20;;;19.90;99.90;;;;;;5033879;28;20045;-68
2022/08/17 02:04:11;;;;;;;44.40;40.10;;;19.90;99.90;;;;;;5015761;28;20389;-68
2022/08/17 02:06:39;;;;;;;44.73;40.10;;;19.90;99.90;;;;;;5033297;28;20489;-68
2022/08/17 02:09:06;;;;;;;45.33;40.73;;;19.80;99.90;;;;;;5033137;28;20059;-68
2022/08/17 02:11:34;;;;;;;43.17;38.67;;;19.70;99.90;;;;;;5033233;28;20092;-68
2022/08/17 02:14:00;;;;;;;42.77;38.50;;;19.60;99.90;;;;;;5033898;28;20107;-68
2022/08/17 02:16:26;;;;;;;44.50;40.03;;;19.60;99.90;;;;;;5033128;28;20048;-68
2022/08/17 02:18:51;;;;;;;45.43;37.93;;;19.50;99.90;;;;;;5033105;28;20476;-68
2022/08/17 02:21:17;;;;;;;42.17;37.90;;;19.50;99.90;;;;;;5033481;28;20133;-68
2022/08/17 02:23:46;;;;;;;42.53;38.33;;;19.50;99.90;;;;;;5033101;28;20041;-68
2022/08/17 02:26:12;;;;;;;50.63;44.27;;;19.50;99.90;;;;;;5033444;28;20096;-68
2022/08/17 02:28:38;;;;;;;41.83;37.77;;;19.50;99.90;;;;;;5015489;28;20049;-68
2022/08/17 02:31:08;;;;;;;44.13;39.50;;;19.50;99.90;;;;;;5033468;28;20123;-68
2022/08/17 02:33:35;;;;;;;40.20;36.17;;;19.50;99.90;;;;;;5033704;28;20042;-68
2022/08/17 02:36:01;;;;;;;43.03;38.77;;;19.50;99.90;;;;;;5015315;28;20088;-68
2022/08/17 02:38:27;;;;;;;45.37;37.33;;;19.50;99.90;;;;;;5015753;28;20049;-68
2022/08/17 02:40:53;;;;;;;50.30;37.80;;;19.50;99.90;;;;;;5036485;28;20044;-68
2022/08/17 02:43:19;;;;;;;43.47;38.83;;;19.40;99.90;;;;;;5037329;28;20049;-68
2022/08/17 02:45:45;;;;;;;41.33;37.03;;;19.40;99.90;;;;;;5018541;28;20065;-68
2022/08/17 02:48:11;;;;;;;40.53;36.57;;;19.40;99.90;;;;;;5018907;28;20052;-68
2022/08/17 02:50:36;;;;;;;45.97;39.53;;;19.50;99.90;;;;;;5018678;28;20042;-68
2022/08/17 02:53:03;;;;;;;47.37;37.63;;;19.50;99.90;;;;;;5036675;28;20081;-68
2022/08/17 02:55:33;;;;;;;42.30;37.80;;;19.50;99.90;;;;;;5036287;28;20118;-68
2022/08/17 02:57:59;;;;;;;41.87;37.77;;;19.50;99.90;;;;;;5036813;28;20107;-71
2022/08/17 03:00:28;;;;;;;50.83;36.97;;;19.40;99.90;;;;;;5036175;28;20135;-68
2022/08/17 03:02:56;;;;;;;43.20;38.27;;;19.40;99.90;;;;;;5036197;28;20041;-67
2022/08/17 03:05:23;;;;;;;43.23;38.80;;;19.40;99.90;;;;;;5018409;28;20045;-67
2022/08/17 03:07:50;;;;;;;52.53;39.43;;;19.40;99.90;;;;;;5036059;28;20056;-67
2022/08/17 03:10:16;;;;;;;47.93;40.07;;;19.30;99.90;;;;;;5035995;28;20092;-67
2022/08/17 03:12:43;;;;;;;41.00;36.80;;;19.20;99.90;;;;;;5035977;28;20180;-68
2022/08/17 03:15:17;;;;;;;43.03;38.30;;;19.20;99.90;;;;;;5018722;28;20053;-68
2022/08/17 03:17:44;;;;;;;45.10;39.80;;;19.20;99.90;;;;;;5036752;28;20041;-68
2022/08/17 03:20:11;;;;;;;44.50;40.00;;;19.20;99.90;;;;;;5035778;28;20041;-68
2022/08/17 03:22:41;;;;;;;44.13;39.53;;;19.10;99.90;;;;;;5035810;28;20128;-68
2022/08/17 03:25:09;;;;;;;41.93;37.93;;;19.10;99.90;;;;;;5035448;28;20048;-68
2022/08/17 03:27:35;;;;;;;38.90;35.00;;;19.10;99.90;;;;;;5035694;28;20037;-67
2022/08/17 03:30:06;;;;;;;40.00;36.03;;;19.10;99.90;;;;;;5035662;28;20478;-68
2022/08/17 03:32:37;;;;;;;40.23;36.43;;;19.10;99.90;;;;;;5035645;28;20080;-68
2022/08/17 03:35:03;;;;;;;39.23;35.37;;;19.10;99.90;;;;;;5018942;28;20144;-68
2022/08/17 03:37:29;;;;;;;40.13;36.17;;;19.10;99.90;;;;;;5035606;28;20236;-68
2022/08/17 03:39:55;;;;;;;40.70;36.57;;;19.20;99.90;;;;;;5035958;28;20370;-67
2022/08/17 03:42:25;;;;;;;41.67;37.03;;;19.20;99.90;;;;;;5017474;28;20053;-67
2022/08/17 03:44:52;;;;;;;41.23;37.00;;;19.20;99.90;;;;;;5035489;28;20092;-67
2022/08/17 03:58:17;;;;;;;40.03;35.97;;;19.30;99.90;;;;;;5035282;28;20093;-68
2022/08/17 04:00:44;;;;;;;42.77;37.07;;;19.20;99.90;;;;;;5001057;28;20095;-68
2022/08/17 04:03:11;;;;;;;91.77;38.50;;;19.20;99.90;;;;;;5035024;28;20088;-68
2022/08/17 04:05:37;;;;;;;42.50;38.13;;;19.20;99.90;;;;;;5035055;28;20053;-68
2022/08/17 04:08:03;;;;;;;48.30;40.20;;;19.20;99.90;;;;;;5034978;28;20172;-68
2022/08/17 04:10:29;;;;;;;47.57;37.63;;;19.20;99.90;;;;;;5017532;28;20409;-68
2022/08/17 04:12:57;;;;;;;56.07;41.40;;;19.20;99.90;;;;;;5034940;28;20045;-68
2022/08/17 04:15:23;;;;;;;56.67;38.83;;;19.30;99.90;;;;;;5035338;28;20378;-68
2022/08/17 04:17:49;;;;;;;55.03;37.87;;;19.20;99.90;;;;;;5034815;28;20057;-68
2022/08/17 04:20:18;;;;;;;85.97;35.17;;;19.20;99.90;;;;;;5034657;28;20500;-68
2022/08/17 04:23:11;;;;;;;60.40;37.23;;;19.20;99.90;;;;;;5016767;28;20489;-68
2022/08/17 04:25:40;;;;;;;60.10;35.63;;;19.10;99.90;;;;;;5034743;28;20042;-68
2022/08/17 04:28:06;;;;;;;52.20;34.70;;;19.10;99.90;;;;;;5034699;28;20045;-68
2022/08/17 04:30:34;;;;;;;45.63;34.27;;;19.00;99.90;;;;;;5034580;28;20049;-68
2022/08/17 04:33:09;;;;;;;47.17;32.20;;;18.90;99.90;;;;;;5034526;28;20049;-67
2022/08/17 04:35:46;;;;;;;35.60;32.13;;;18.90;99.90;;;;;;5035041;28;20103;-67
2022/08/17 04:38:21;;;;;;;35.27;31.57;;;19.00;99.90;;;;;;5034727;28;20045;-68
2022/08/17 04:43:33;;;;;;;31.93;28.83;;;19.00;99.90;;;;;;5034317;28;20262;-67
2022/08/17 04:46:06;;;;;;;32.20;29.20;;;19.00;99.90;;;;;;5034121;28;20061;-67
2022/08/17 04:48:44;;;;;;;48.47;29.33;;;19.00;99.90;;;;;;5034509;28;20045;-67
2022/08/17 04:51:29;;;;;;;44.67;29.43;;;19.00;99.90;;;;;;5034199;28;20076;-70
2022/08/17 04:53:57;;;;;;;;;;;19.10;99.90;;;;;;5034602;28;20045;-67
2022/08/17 04:56:25;;;;;;;32.23;29.30;;;19.00;99.90;;;;;;5016114;28;19921;-68
2022/08/17 04:58:55;;;;;;;31.87;28.93;;;19.00;99.90;;;;;;5016363;28;20041;-67
2022/08/17 05:01:23;;;;;;;33.50;30.40;;;19.10;99.90;;;;;;5034149;28;20041;-67
2022/08/17 05:03:49;;;;;;;32.67;29.63;;;19.10;99.90;;;;;;5033955;28;20122;-67
2022/08/17 05:06:15;;;;;;;31.67;28.67;;;19.20;99.90;;;;;;5033890;28;20477;-68
2022/08/17 05:08:40;;;;;;;34.93;31.63;;;19.10;99.90;;;;;;5033844;28;20049;-68
2022/08/17 05:11:07;;;;;;;33.53;30.53;;;19.20;99.90;;;;;;5034532;28;20105;-68
2022/08/17 05:13:32;;;;;;;34.03;30.93;;;19.20;99.90;;;;;;5033471;28;20049;-68
2022/08/17 05:16:00;;;;;;;30.67;28.07;;;19.30;99.90;;;;;;5033745;28;20212;-68
2022/08/17 05:18:28;;;;;;;31.43;28.60;;;19.30;99.90;;;;;;5033714;28;20050;-68
2022/08/17 05:20:55;;;;;;;31.43;28.63;;;19.30;99.90;;;;;;5034193;28;20326;-68
2022/08/17 05:23:23;;;;;;;32.07;29.17;;;19.40;99.90;;;;;;5015980;28;20052;-67
2022/08/17 05:25:51;;;;;;;31.17;28.20;;;19.40;99.90;;;;;;5034426;28;20068;-67
2022/08/17 05:28:19;;;;;;;29.57;26.87;;;19.40;99.90;;;;;;5033853;28;20045;-68
2022/08/17 05:30:46;;;;;;;30.57;27.57;;;19.50;99.90;;;;;;5033513;28;20037;-68
2022/08/17 05:33:15;;;;;;;31.43;28.53;;;19.60;99.90;;;;;;5034292;28;20049;-67
2022/08/17 05:35:45;;;;;;;31.03;28.13;;;19.70;99.90;;;;;;5034021;28;20147;-67
2022/08/17 05:38:12;;;;;;;30.40;27.47;;;19.60;99.90;;;;;;5033519;28;20041;-68
2022/08/17 05:40:39;;;;;;;32.67;29.67;;;19.70;99.90;;;;;;5033543;28;20551;-68
2022/08/17 05:43:17;;;;;;;31.53;28.43;;;19.70;99.90;;;;;;5033457;28;20125;-68
2022/08/17 05:45:51;;;;;;;30.77;27.87;;;19.60;99.90;;;;;;5033039;28;20056;-68
2022/08/17 05:48:17;;;;;;;30.55;27.45;;;19.60;99.90;;;;;;5034014;28;20388;-68
2022/08/17 05:50:49;;;;;;;29.43;26.63;;;19.60;99.90;;;;;;5015737;28;20042;-68
2022/08/17 05:53:20;;;;;;;30.87;27.97;;;19.70;99.90;;;;;;5033412;28;20474;-68
2022/08/17 05:56:03;;;;;;;30.77;27.77;;;19.80;99.90;;;;;;5033697;28;20447;-68
2022/08/17 05:58:37;;;;;;;29.97;27.17;;;19.80;99.90;;;;;;5015724;28;20052;-68
2022/08/17 06:01:12;;;;;;;32.35;29.08;;;19.90;99.90;;;;;;5033592;28;20095;-68
2022/08/17 06:04:02;;;;;;;34.88;31.50;;;19.90;99.90;;;;;;5034096;28;20131;-68
2022/08/17 06:06:33;;;;;;;32.53;29.27;;;19.80;99.90;;;;;;5032224;28;20142;-67
2022/08/17 06:09:05;;;;;;;37.37;33.77;;;19.90;99.90;;;;;;5015775;28;20062;-67
2022/08/17 06:11:40;;;;;;;34.67;31.07;;;19.90;99.90;;;;;;5033204;28;20056;-67
2022/08/17 06:14:23;;;;;;;;;;;20.00;99.90;;;;;;5035118;28;20045;-68
2022/08/17 06:16:57;;;;;;;34.87;31.57;;;20.00;99.90;;;;;;5037104;28;19925;-68
2022/08/17 06:19:49;;;;;;;35.87;32.17;;;20.00;99.90;;;;;;5037038;28;20046;-68
2022/08/17 06:22:19;;;;;;;36.43;32.70;;;20.10;99.90;;;;;;5019364;28;20087;-68
2022/08/17 06:24:55;;;;;;;37.67;34.03;;;20.20;99.90;;;;;;5036898;28;20495;-68
2022/08/17 06:27:42;;;;;;;38.00;34.07;;;20.20;99.90;;;;;;5037703;28;20072;-69
2022/08/17 06:30:10;;;;;;;36.73;32.87;;;20.20;99.90;;;;;;5036866;28;20053;-68
2022/08/17 06:32:42;;;;;;;40.30;36.30;;;20.20;99.90;;;;;;5036761;28;20045;-68
2022/08/17 06:35:12;;;;;;;46.27;41.47;;;20.20;99.90;;;;;;5037356;28;20041;-68
2022/08/17 06:37:41;;;;;;;42.73;38.40;;;20.30;99.90;;;;;;5019186;28;20477;-68
2022/08/17 06:40:09;;;;;;;34.03;30.77;;;20.30;99.90;;;;;;5037366;28;20424;-68
2022/08/17 06:43:00;;;;;;;46.20;41.63;;;20.30;99.90;;;;;;5036610;28;20057;-68
2022/08/17 06:45:41;;;;;;;45.13;40.40;;;20.30;99.90;;;;;;5036483;28;20064;-68
2022/08/17 06:48:27;;;;;;;43.40;38.80;;;20.30;99.90;;;;;;5036909;28;20041;-68
2022/08/17 06:51:14;;;;;;;43.80;39.60;;;20.30;99.90;;;;;;5036471;28;20034;-68
2022/08/17 06:54:15;;;;;;;42.87;38.57;;;20.30;99.90;;;;;;5036724;28;20374;-69
2022/08/17 06:56:47;;;;;;;43.23;38.60;;;20.30;99.90;;;;;;4955820;29;20497;-68
2022/08/17 06:59:18;;;;;;;42.10;37.97;;;20.30;99.90;;;;;;5023223;28;20056;-68
2022/08/17 07:01:47;;;;;;;40.90;37.03;;;20.30;99.90;;;;;;5019393;28;20049;-69
2022/08/17 07:04:17;;;;;;;41.43;37.37;;;20.30;99.90;;;;;;5018595;28;20049;-68
2022/08/17 07:06:46;;;;;;;42.30;38.23;;;20.30;99.90;;;;;;5036187;28;20083;-68
2022/08/17 07:09:24;;;;;;;42.50;38.30;;;20.30;99.90;;;;;;5036167;28;20056;-68
2022/08/17 07:11:59;;;;;;;44.63;40.23;;;20.20;99.90;;;;;;5037193;28;20037;-69
2022/08/17 07:14:39;;;;;;;44.10;39.90;;;20.10;99.90;;;;;;5018408;28;20405;-70
2022/08/17 07:17:13;;;;;;;43.80;39.47;;;20.00;99.90;;;;;;5036106;28;20057;-69
2022/08/17 07:19:44;;;;;;;43.92;39.58;;;20.00;99.90;;;;;;5002914;28;20060;-69
2022/08/17 07:22:35;;;;;;;43.20;39.00;;;20.00;99.90;;;;;;5035830;28;20049;-69
2022/08/17 07:25:06;;;;;;;40.57;36.67;;;19.90;99.90;;;;;;5035200;28;20053;-69
2022/08/17 07:27:49;;;;;;;42.40;38.30;;;19.90;99.90;;;;;;5035873;28;20045;-69
2022/08/17 07:30:25;;;;;;;41.63;37.53;;;19.90;99.90;;;;;;5035756;28;20049;-69
2022/08/17 07:33:24;;;;;;;44.83;40.27;;;19.80;99.90;;;;;;5035597;28;20046;-68
2022/08/17 07:35:51;;;;;;;45.27;40.93;;;19.80;99.90;;;;;;4992633;28;20068;-68
2022/08/17 07:38:28;;;;;;;50.57;45.13;;;19.80;99.90;;;;;;5035575;28;20124;-67
2022/08/17 07:40:56;;;;;;;44.50;39.73;;;19.80;99.90;;;;;;5035503;28;20077;-69
2022/08/17 07:43:39;;;;;;;48.03;42.67;;;19.80;99.90;;;;;;5035493;28;20132;-68
2022/08/17 07:49:09;;;;;;;43.90;39.30;;;19.80;99.90;;;;;;5035937;28;20096;-68
2022/08/17 07:51:37;;;;;;;47.10;42.13;;;19.80;99.90;;;;;;5035256;28;20081;-68
2022/08/17 07:54:26;;;;;;;47.47;42.33;;;19.80;99.90;;;;;;5035259;28;20045;-68
2022/08/17 07:56:59;;;;;;;50.57;45.40;;;19.80;99.90;;;;;;5022898;28;20137;-68
2022/08/17 07:59:37;;;;;;;46.67;41.77;;;19.80;99.90;;;;;;5035766;28;20046;-68
2022/08/17 08:02:13;;;;;;;49.10;44.07;;;19.90;99.90;;;;;;5035830;28;20071;-68
2022/08/17 08:04:46;;;;;;;49.43;43.80;;;20.00;99.90;;;;;;5017438;28;20049;-67
2022/08/17 08:07:19;;;;;;;48.73;43.63;;;20.00;99.90;;;;;;5035061;28;20547;-68
2022/08/17 08:10:01;;;;;;;50.77;45.50;;;20.00;99.90;;;;;;5034975;28;20489;-68
2022/08/17 08:12:34;;;;;;;51.60;46.00;;;20.00;99.90;;;;;;5034684;28;20390;-68
2022/08/17 08:15:16;;;;;;;51.10;45.57;;;20.10;99.90;;;;;;5034850;28;20132;-68
2022/08/17 08:17:58;;;;;;;48.97;43.70;;;20.10;99.90;;;;;;5016815;28;20516;-68
2022/08/17 08:20:51;;;;;;;52.00;46.50;;;20.10;99.90;;;;;;5034703;28;20051;-68
2022/08/17 08:23:48;;;;;;;52.97;47.17;;;20.20;99.90;;;;;;5035336;28;20041;-68
2022/08/17 08:26:46;;;;;;;52.70;46.97;;;20.30;99.90;;;;;;5034681;28;20049;-68
2022/08/17 08:29:36;;;;;;;51.17;45.60;;;20.30;99.90;;;;;;5016549;28;20124;-67
2022/08/17 08:32:24;;;;;;;48.90;43.70;;;20.30;99.90;;;;;;5034556;28;20121;-67
2022/08/17 08:35:12;;;;;;;49.37;43.57;;;20.40;99.90;;;;;;5034438;28;20132;-68
2022/08/17 08:37:50;;;;;;;49.13;44.03;;;20.40;99.90;;;;;;5034920;28;20076;-67
2022/08/17 08:40:15;;;;;;;43.93;39.43;;;20.40;99.90;;;;;;5034657;28;20045;-68
2022/08/17 08:42:55;;;;;;;50.70;45.27;;;20.40;99.90;;;;;;5000420;28;20564;-67
2022/08/17 08:45:27;;;;;;;50.00;44.80;;;20.50;99.90;;;;;;5034605;28;20052;-67
2022/08/17 08:48:22;;;;;;;51.40;45.83;;;20.50;99.90;;;;;;5034466;28;20049;-67
2022/08/17 08:51:01;;;;;;;52.40;46.78;;;20.50;99.90;;;;;;4963606;28;20055;-67
2022/08/17 08:53:29;;;;;;;56.93;50.30;;;20.50;99.90;;;;;;5034964;28;20367;-67
2022/08/17 08:56:18;;;;;;;51.40;45.07;;;20.50;99.90;;;;;;5034411;28;20107;-70
2022/08/17 08:58:58;;;;;;;48.17;43.17;;;20.50;99.90;;;;;;5015977;28;20053;-67
2022/08/17 09:01:38;;;;;;;51.80;46.20;;;20.50;99.90;;;;;;5034532;28;20051;-67
2022/08/17 09:04:30;;;;;;;49.07;43.97;;;20.60;99.90;;;;;;5034270;28;20116;-74
2022/08/17 09:07:18;;;;;;;53.80;48.03;;;20.60;99.90;;;;;;5034481;28;20460;-70
2022/08/17 09:09:54;;;;;;;59.10;50.03;;;20.50;99.90;;;;;;5033849;28;20155;-70
2022/08/17 09:12:55;;;;;;;49.13;44.00;;;20.60;99.90;;;;;;5033854;28;20045;-71
2022/08/17 09:15:27;;;;;;;56.23;50.33;;;20.80;99.90;;;;;;5003763;28;20482;-67
2022/08/17 09:18:08;;;;;;;53.97;48.47;;;21.00;99.90;;;;;;5016579;28;20366;-68
2022/08/17 09:20:56;;;;;;;56.50;49.73;;;21.00;99.90;;;;;;5033640;28;20037;-67
2022/08/17 09:23:32;;;;;;;49.60;44.70;;;21.10;99.90;;;;;;5020463;28;20062;-68
2022/08/17 09:26:19;;;;;;;46.60;42.17;;;21.10;99.90;;;;;;5033913;28;20056;-68
2022/08/17 09:28:50;;;;;;;46.23;41.57;;;21.20;99.90;;;;;;5033607;28;20478;-68
2022/08/17 09:31:22;;;;;;;49.37;44.50;;;21.10;99.90;;;;;;5033878;28;20049;-67
2022/08/17 09:33:50;;;;;;;47.87;43.30;;;21.00;99.90;;;;;;5033594;28;20050;-68
2022/08/17 09:36:32;;;;;;;49.23;44.37;;;21.10;99.90;;;;;;5033247;28;20489;-67
2022/08/17 09:39:07;;;;;;;50.57;45.70;;;21.10;99.90;;;;;;5033683;28;20124;-68
2022/08/17 09:41:56;;;;;;;44.60;40.30;;;21.10;99.90;;;;;;5034586;28;20044;-68
2022/08/17 09:44:54;;;;;;;50.10;45.23;;;21.00;99.90;;;;;;5033291;28;20556;-68
2022/08/17 09:47:35;;;;;;;41.20;37.13;;;21.10;99.90;;;;;;5033434;28;20068;-68
2022/08/17 09:50:10;;;;;;;42.10;37.93;;;21.10;99.90;;;;;;5033349;28;20132;-68
2022/08/17 09:52:36;;;;;;;39.97;36.22;;;21.10;99.90;;;;;;5033360;28;20072;-68
2022/08/17 09:55:03;;;;;;;39.60;36.00;;;21.10;99.90;;;;;;5033290;28;20481;-67
2022/08/17 09:57:29;;;;;;;38.60;34.67;;;21.00;99.90;;;;;;5033322;28;20119;-68
2022/08/17 10:03:00;;;;;;;35.90;32.50;;;21.20;99.90;;;;;;5033820;28;20049;-68
2022/08/17 10:05:51;;;;;;;34.20;31.10;;;21.40;99.90;;;;;;5033284;28;20045;-68
2022/08/17 10:08:21;;;;;;;34.73;31.73;;;21.60;99.90;;;;;;5033228;28;20493;-68
2022/08/17 10:11:13;;;;;;;30.87;27.90;;;21.70;99.90;;;;;;5033370;28;20084;-68
2022/08/17 10:14:05;;;;;;;29.50;26.80;;;21.90;99.90;;;;;;5033235;28;20057;-69
2022/08/17 10:16:42;;;;;;;27.60;24.90;;;21.90;99.90;;;;;;5029515;28;20067;-67
2022/08/17 10:19:20;;;;;;;23.83;21.50;;;22.10;99.90;;;;;;5015541;28;20041;-68
2022/08/17 10:27:53;;;;;;;20.97;18.97;;;22.00;99.90;;;;;;5033087;28;20057;-71
2022/08/17 10:30:23;;;;;;;20.40;18.53;;;21.90;99.90;;;;;;5033419;28;20183;-71
2022/08/17 10:32:54;;;;;;;20.07;17.97;;;21.80;99.90;;;;;;5033876;28;20124;-70
2022/08/17 10:35:38;;;;;;;18.47;16.67;;;21.80;99.90;;;;;;5033064;28;20045;-71
2022/08/17 10:38:26;;;;;;;18.10;16.30;;;21.70;99.90;;;;;;5033317;28;20056;-71
2022/08/17 10:41:01;;;;;;;18.27;16.53;;;21.60;99.90;;;;;;5033212;28;20296;-71
2022/08/17 10:43:45;;;;;;;17.23;15.60;;;21.60;99.90;;;;;;4999936;28;20053;-70
2022/08/17 10:46:23;;;;;;;16.93;15.37;;;21.70;99.90;;;;;;5033305;28;20063;-71
2022/08/17 10:49:12;;;;;;;16.03;14.37;;;21.70;99.90;;;;;;5032933;28;20053;-72
2022/08/17 10:51:40;;;;;;;15.03;13.63;;;21.80;99.90;;;;;;5020446;28;20045;-73
2022/08/17 10:54:46;;;;;;;15.83;14.17;;;21.80;99.90;;;;;;5033349;28;20057;-68
2022/08/17 10:57:32;;;;;;;16.05;11.95;;;21.90;99.90;;;;;;5032791;28;20128;-69
2022/08/17 11:00:13;;;;;;;13.87;12.23;;;22.00;99.90;;;;;;5034754;28;20178;-69
2022/08/17 11:02:54;;;;;;;14.73;12.93;;;22.10;99.90;;;;;;5037489;28;20045;-68
2022/08/17 11:05:41;;;;;;;17.20;13.60;;;22.10;99.90;;;;;;5019135;28;20057;-69
2022/08/17 11:08:21;;;;;;;15.83;13.63;;;22.20;99.90;;;;;;5036472;28;20051;-69
2022/08/17 11:11:14;;;;;;;13.37;12.07;;;22.30;99.90;;;;;;5036200;28;20045;-69
2022/08/17 11:13:58;;;;;;;14.27;12.77;;;22.40;99.90;;;;;;5035851;28;20511;-69
2022/08/17 11:17:07;;;;;;;12.43;10.88;;;22.40;99.90;;;;;;5036668;28;20045;-69
2022/08/17 11:19:32;;;;;;;13.97;11.50;;;22.40;99.90;;;;;;5036856;28;20049;-70
2022/08/17 11:22:28;;;;;;;12.07;10.80;;;22.40;99.90;;;;;;5036430;28;20389;-69
2022/08/17 11:24:54;;;;;;;;;;;22.40;99.90;;;;;;5007728;28;20057;-73
2022/08/17 11:27:20;;;;;;;10.90;9.50;;;22.40;99.90;;;;;;5035881;28;19921;-73
2022/08/17 11:29:58;;;;;;;12.10;10.43;;;22.40;99.90;;;;;;5036185;28;20046;-74
2022/08/17 11:32:45;;;;;;;10.90;8.80;;;22.40;99.90;;;;;;5035831;28;20453;-74
2022/08/17 11:35:20;;;;;;;10.57;9.47;;;22.50;99.90;;;;;;5035805;28;20042;-69
2022/08/17 11:38:11;;;;;;;9.50;8.35;;;22.60;99.90;;;;;;5035683;28;20056;-69
2022/08/17 11:41:05;;;;;;;12.63;10.07;;;22.60;99.90;;;;;;5036158;28;20451;-69
2022/08/17 11:44:11;;;;;;;11.77;9.83;;;22.70;99.90;;;;;;5035427;28;20053;-69
2022/08/17 11:52:51;;;;;;;13.03;11.80;;;22.80;99.90;;;;;;5016192;28;20133;-69
2022/08/17 11:55:40;;;;;;;18.27;13.50;;;22.80;99.90;;;;;;5015277;28;20574;-77
2022/08/17 11:58:38;;;;;;;15.90;14.20;;;23.00;99.90;;;;;;5005652;28;20468;-69
2022/08/17 12:01:11;;;;;;;16.80;15.17;;;23.10;99.90;;;;;;5015918;28;20355;-70
2022/08/17 12:03:37;;;;;;;16.40;14.67;;;23.20;99.90;;;;;;5015782;28;20443;-69
2022/08/17 12:06:16;;;;;;;15.13;13.53;;;23.10;99.90;;;;;;5015916;28;20084;-73
2022/08/17 12:08:49;;;;;;;14.87;13.27;;;23.10;99.90;;;;;;5015899;28;20441;-77
2022/08/17 12:11:33;;;;;;;14.13;11.63;;;23.10;99.90;;;;;;5013686;28;20486;-71
2022/08/17 12:14:00;;;;;;;14.87;12.20;;;23.10;99.90;;;;;;5014897;28;20056;-72
2022/08/17 12:16:25;;;;;;;14.87;11.23;;;23.00;99.90;;;;;;5013917;28;20057;-72
2022/08/17 12:18:58;;;;;;;15.03;12.13;;;23.00;99.90;;;;;;5014758;28;20045;-72
2022/08/17 12:21:37;;;;;;;13.50;11.63;;;23.10;99.90;;;;;;5014977;28;20052;-73
2022/08/17 12:24:23;;;;;;;16.07;12.40;;;23.10;99.90;;;;;;5015568;28;20470;-73
2022/08/17 12:26:58;;;;;;;13.33;12.03;;;23.10;99.90;;;;;;5015041;28;20054;-74
2022/08/17 12:29:24;;;;;;;13.73;12.33;;;23.00;99.90;;;;;;5015258;28;20042;-74
2022/08/17 12:31:53;;;;;;;14.83;13.23;;;23.00;99.90;;;;;;5013674;28;20048;-73
2022/08/17 12:34:25;;;;;;;16.33;14.10;;;23.00;99.90;;;;;;5014818;28;20084;-72
2022/08/17 12:36:58;;;;;;;20.10;14.13;;;22.90;99.90;;;;;;5015432;28;20057;-73
2022/08/17 12:39:26;;;;;;;16.73;15.03;;;22.90;99.90;;;;;;5015570;28;20079;-73
2022/08/17 12:41:57;;;;;;;15.60;13.97;;;22.90;99.90;;;;;;5014665;28;20517;-73
2022/08/17 12:44:36;;;;;;;17.17;15.47;;;22.90;99.90;;;;;;5015409;28;20046;-74
2022/08/17 12:47:16;;;;;;;17.17;15.40;;;22.80;99.90;;;;;;5027248;28;20054;-70
2022/08/17 12:49:47;;;;;;;18.40;16.60;;;22.80;99.90;;;;;;5034913;28;20123;-70
2022/08/17 12:52:23;;;;;;;20.43;18.33;;;22.80;99.90;;;;;;5034342;28;20052;-72
2022/08/17 12:54:54;;;;;;;19.83;17.80;;;22.80;99.90;;;;;;5016875;28;20481;-72
2022/08/17 12:57:47;;;;;;;21.07;18.90;;;22.80;99.90;;;;;;5034165;28;20042;-75
2022/08/17 13:00:15;;;;;;;19.43;17.43;;;22.80;99.90;;;;;;5030453;28;20115;-74
2022/08/17 13:03:12;;;;;;;18.43;16.57;;;22.80;99.90;;;;;;5033974;28;20401;-75
2022/08/17 13:05:41;;;;;;;18.83;17.13;;;22.80;99.90;;;;;;5034853;28;20111;-74
2022/08/17 13:08:15;;;;;;;18.37;16.57;;;22.70;99.90;;;;;;5033916;28;20508;-73
2022/08/17 13:10:41;;;;;;;;;;;22.70;99.90;;;;;;5016796;28;20045;-73
2022/08/17 13:13:23;;;;;;;17.77;15.97;;;22.70;99.90;;;;;;5033887;28;20443;-74
2022/08/17 13:15:55;;;;;;;18.70;16.93;;;22.70;99.90;;;;;;5033928;28;20048;-74
2022/08/17 13:18:37;;;;;;;19.87;17.00;;;22.80;99.90;;;;;;5034361;28;20136;-73
2022/08/17 13:21:29;;;;;;;18.77;16.27;;;22.70;99.90;;;;;;5033798;28;20045;-82
2022/08/17 13:24:03;;;;;;;18.97;16.97;;;22.70;99.90;;;;;;5033221;28;20107;-74
2022/08/17 13:26:40;;;;;;;18.52;16.75;;;22.70;99.90;;;;;;5033695;28;20111;-76
2022/08/17 13:29:31;;;;;;;17.67;15.80;;;22.60;99.90;;;;;;5033700;28;20084;-75
2022/08/17 13:32:05;;;;;;;18.60;16.90;;;22.60;99.90;;;;;;5033975;28;20064;-78
2022/08/17 13:34:37;;;;;;;;;;;22.60;99.90;;;;;;5016323;28;20053;-75
2022/08/17 13:37:31;;;;;;;18.73;17.10;;;22.60;99.90;;;;;;5033929;28;19928;-74